createdAt,value
2023-03-12T00:01:19.334Z,100860.47
2023-03-12T00:03:48.256Z,100861.59
2023-03-12T00:06:17.322Z,100859.22
2023-03-12T00:08:46.375Z,100862.59
2023-03-12T00:11:17.060Z,100847.84
2023-03-12T00:13:49.991Z,100843.84
2023-03-12T00:16:18.670Z,100849.16
2023-03-12T00:18:50.166Z,100851.31
2023-03-12T00:21:19.191Z,100838.63
2023-03-12T00:23:48.648Z,100842.41
2023-03-12T00:26:17.786Z,100843.13
2023-03-12T00:28:48.361Z,100844.66
2023-03-12T00:31:19.154Z,100842.38
2023-03-12T00:33:49.456Z,100845.75
2023-03-12T00:36:18.197Z,100843.66
2023-03-12T00:38:46.981Z,100835.50
2023-03-12T00:41:15.711Z,100831.94
2023-03-12T00:43:44.417Z,100818.94
2023-03-12T00:46:14.701Z,100820.81
2023-03-12T00:48:43.592Z,100822.56
2023-03-12T00:51:12.180Z,100817.16
2023-03-12T00:53:40.812Z,100814.41
2023-03-12T00:56:09.794Z,100802.88
2023-03-12T00:58:38.394Z,100808.75
2023-03-12T01:01:07.562Z,100802.09
2023-03-12T01:03:37.845Z,100796.38
2023-03-12T01:06:07.277Z,100800.13
2023-03-12T01:08:36.136Z,100795.72
2023-03-12T01:11:04.812Z,100794.63
2023-03-12T01:13:33.594Z,100794.09
2023-03-12T01:16:02.228Z,100792.69
2023-03-12T01:18:30.882Z,100780.28
2023-03-12T01:21:00.805Z,100787.81
2023-03-12T01:23:29.557Z,100783.50
2023-03-12T01:25:58.468Z,100782.41
2023-03-12T01:28:27.601Z,100778.63
2023-03-12T01:30:56.180Z,100774.31
2023-03-12T01:33:24.759Z,100768.81
2023-03-12T01:35:53.537Z,100771.91
2023-03-12T01:38:23.519Z,100766.44
2023-03-12T01:40:52.099Z,100768.84
2023-03-12T01:43:31.197Z,100749.06
2023-03-12T01:46:22.801Z,100748.75
2023-03-12T01:48:55.922Z,100763.34
2023-03-12T01:51:28.957Z,100753.69
2023-03-12T01:54:02.009Z,100754.88
2023-03-12T01:56:35.228Z,100757.00
2023-03-12T01:59:08.666Z,100764.38
2023-03-12T02:01:38.176Z,100758.06
2023-03-12T02:04:07.926Z,100754.63
2023-03-12T02:06:44.287Z,100750.13
2023-03-12T02:09:15.285Z,100743.41
2023-03-12T02:11:43.831Z,100738.78
2023-03-12T02:14:12.803Z,100735.34
2023-03-12T02:16:41.519Z,100723.44
2023-03-12T02:19:18.437Z,100721.63
2023-03-12T02:21:47.383Z,100718.66
2023-03-12T02:24:22.910Z,100720.19
2023-03-12T02:26:52.998Z,100719.47
2023-03-12T02:29:21.780Z,100718.22
2023-03-12T02:31:56.718Z,100723.84
2023-03-12T02:34:25.330Z,100737.59
2023-03-12T02:36:53.911Z,100737.44
2023-03-12T02:39:22.780Z,100733.88
2023-03-12T02:41:57.802Z,100732.59
2023-03-12T02:44:29.540Z,100723.38
2023-03-12T02:47:00.834Z,100723.50
2023-03-12T02:49:32.039Z,100707.78
2023-03-12T02:52:00.836Z,100700.91
2023-03-12T02:54:29.895Z,100702.53
2023-03-12T02:57:00.023Z,100696.72
2023-03-12T02:59:28.794Z,100695.72
2023-03-12T03:01:59.202Z,100696.47
2023-03-12T03:04:29.020Z,100685.34
2023-03-12T03:06:57.860Z,100687.31
2023-03-12T03:09:26.892Z,100692.59
2023-03-12T03:11:55.584Z,100686.78
2023-03-12T03:14:25.620Z,100679.31
2023-03-12T03:16:54.263Z,100684.59
2023-03-12T03:19:22.850Z,100678.28
2023-03-12T03:21:51.442Z,100683.59
2023-03-12T03:24:20.011Z,100684.44
2023-03-12T03:26:48.643Z,100683.97
2023-03-12T03:29:17.222Z,100680.31
2023-03-12T03:31:47.191Z,100672.50
2023-03-12T03:34:15.815Z,100672.09
2023-03-12T03:36:44.392Z,100661.34
2023-03-12T03:39:12.984Z,100665.97
2023-03-12T03:41:41.563Z,100671.09
2023-03-12T03:44:10.132Z,100664.19
2023-03-12T03:46:38.794Z,100670.06
2023-03-12T03:49:08.810Z,100671.09
2023-03-12T03:51:37.615Z,100663.53
2023-03-12T03:54:06.289Z,100671.34
2023-03-12T03:56:34.976Z,100673.03
2023-03-12T03:59:04.124Z,100680.13
2023-03-12T04:01:32.845Z,100656.31
2023-03-12T04:04:01.632Z,100673.81
2023-03-12T04:06:31.883Z,100671.09
2023-03-12T04:09:00.531Z,100670.47
2023-03-12T04:11:29.235Z,100664.88
2023-03-12T04:13:58.615Z,100669.94
2023-03-12T04:16:27.264Z,100663.41
2023-03-12T04:18:55.827Z,100663.25
2023-03-12T04:21:24.389Z,100664.88
2023-03-12T04:23:54.350Z,100660.69
2023-03-12T04:26:23.028Z,100644.31
2023-03-12T04:28:51.638Z,100653.41
2023-03-12T04:31:20.241Z,100649.50
2023-03-12T04:33:48.866Z,100645.44
2023-03-12T04:36:17.441Z,100645.81
2023-03-12T04:38:45.995Z,100641.22
2023-03-12T04:41:17.349Z,100639.63
2023-03-12T04:43:46.168Z,100635.50
2023-03-12T04:46:14.920Z,100637.53
2023-03-12T04:48:43.580Z,100633.09
2023-03-12T04:51:12.342Z,100633.56
2023-03-12T04:53:41.485Z,100632.28
2023-03-12T04:56:10.418Z,100622.25
2023-03-12T04:58:40.359Z,100625.94
2023-03-12T05:01:08.973Z,100618.78
2023-03-12T05:03:38.514Z,100617.31
2023-03-12T05:06:07.334Z,100601.53
2023-03-12T05:08:35.915Z,100591.28
2023-03-12T05:11:04.554Z,100602.88
2023-03-12T05:13:33.162Z,100595.16
2023-03-12T05:16:03.523Z,100598.91
2023-03-12T05:18:32.153Z,100603.97
2023-03-12T05:21:02.389Z,100600.72
2023-03-12T05:23:31.442Z,100584.22
2023-03-12T05:26:00.006Z,100579.47
2023-03-12T05:28:28.827Z,100572.28
2023-03-12T05:30:58.324Z,100577.16
2023-03-12T05:33:29.521Z,100574.31
2023-03-12T05:35:58.260Z,100573.78
2023-03-12T05:38:26.899Z,100575.53
2023-03-12T05:40:56.767Z,100574.59
2023-03-12T05:43:25.560Z,100573.22
2023-03-12T05:45:54.859Z,100562.53
2023-03-12T05:48:23.437Z,100557.66
2023-03-12T05:50:53.364Z,100555.34
2023-03-12T05:53:21.933Z,100553.03
2023-03-12T05:55:50.493Z,100544.09
2023-03-12T05:58:19.110Z,100525.34
2023-03-12T06:00:47.688Z,100526.91
2023-03-12T06:03:17.211Z,100513.41
2023-03-12T06:05:48.028Z,100511.78
2023-03-12T06:08:17.969Z,100500.91
2023-03-12T06:10:46.512Z,100514.91
2023-03-12T06:13:15.109Z,100519.97
2023-03-12T06:15:43.671Z,100526.03
2023-03-12T06:18:12.253Z,100519.47
2023-03-12T06:20:40.807Z,100527.00
2023-03-12T06:23:09.591Z,100526.13
2023-03-12T06:25:39.592Z,100526.06
2023-03-12T06:28:08.156Z,100523.22
2023-03-12T06:30:36.740Z,100538.16
2023-03-12T06:33:08.896Z,100525.75
2023-03-12T06:35:37.571Z,100516.91
2023-03-12T06:38:06.143Z,100526.34
2023-03-12T06:40:34.736Z,100533.75
2023-03-12T06:43:04.661Z,100530.16
2023-03-12T06:45:33.262Z,100523.38
2023-03-12T06:48:01.805Z,100523.03
2023-03-12T06:50:30.385Z,100521.72
2023-03-12T06:52:58.921Z,100519.22
2023-03-12T06:55:27.476Z,100528.59
2023-03-12T06:57:56.022Z,100529.31
2023-03-12T07:00:26.398Z,100523.44
2023-03-12T07:02:54.958Z,100516.34
2023-03-12T07:05:23.655Z,100508.38
2023-03-12T07:07:52.336Z,100515.59
2023-03-12T07:10:21.190Z,100519.00
2023-03-12T07:12:49.767Z,100511.00
2023-03-12T07:15:18.489Z,100513.03
2023-03-12T07:17:48.465Z,100507.25
2023-03-12T07:20:17.284Z,100502.66
2023-03-12T07:22:45.979Z,100494.06
2023-03-12T07:25:14.564Z,100500.53
2023-03-12T07:27:43.091Z,100501.06
2023-03-12T07:30:12.953Z,100502.75
2023-03-12T07:32:42.019Z,100503.59
2023-03-12T07:35:12.580Z,100505.63
2023-03-12T07:37:41.240Z,100501.69
2023-03-12T07:40:11.172Z,100500.47
2023-03-12T07:42:39.687Z,100505.47
2023-03-12T07:45:09.358Z,100496.22
2023-03-12T07:47:38.093Z,100485.50
2023-03-12T07:50:07.465Z,100495.09
2023-03-12T07:52:37.502Z,100490.06
2023-03-12T07:55:07.121Z,100481.84
2023-03-12T07:57:35.843Z,100484.38
2023-03-12T08:00:07.336Z,100478.63
2023-03-12T08:02:36.634Z,100482.56
2023-03-12T08:05:06.175Z,100474.03
2023-03-12T08:07:36.330Z,100481.13
2023-03-12T08:10:08.644Z,100491.66
2023-03-12T08:12:38.292Z,100490.47
2023-03-12T08:15:08.497Z,100495.19
2023-03-12T08:17:37.077Z,100482.19
2023-03-12T08:20:09.469Z,100482.13
2023-03-12T08:22:39.995Z,100493.13
2023-03-12T08:25:09.912Z,100484.38
2023-03-12T08:27:38.561Z,100493.72
2023-03-12T08:30:08.172Z,100489.63
2023-03-12T08:32:36.957Z,100464.44
2023-03-12T08:35:05.971Z,100470.78
2023-03-12T08:37:34.810Z,100492.91
2023-03-12T08:40:09.196Z,100487.53
2023-03-12T08:42:37.740Z,100479.84
2023-03-12T08:45:06.861Z,100466.44
2023-03-12T08:47:35.444Z,100468.75
2023-03-12T08:50:04.505Z,100463.03
2023-03-12T08:52:33.094Z,100463.88
2023-03-12T08:55:03.019Z,100459.94
2023-03-12T08:57:31.602Z,100458.63
2023-03-12T09:00:00.171Z,100472.03
2023-03-12T09:02:29.417Z,100472.50
2023-03-12T09:04:57.999Z,100468.88
2023-03-12T09:07:26.609Z,100468.88
2023-03-12T09:09:56.690Z,100464.22
2023-03-12T09:12:26.689Z,100475.47
2023-03-12T09:15:03.354Z,100482.41
2023-03-12T09:17:32.758Z,100475.78
2023-03-12T09:20:01.342Z,100462.28
2023-03-12T09:22:31.423Z,100468.03
2023-03-12T09:25:00.022Z,100468.00
2023-03-12T09:27:29.960Z,100462.75
2023-03-12T09:30:01.117Z,100464.78
2023-03-12T09:32:30.504Z,100474.22
2023-03-12T09:34:59.345Z,100471.56
2023-03-12T09:37:27.944Z,100481.28
2023-03-12T09:39:56.744Z,100482.88
2023-03-12T09:42:28.636Z,100467.88
2023-03-12T09:45:01.348Z,100482.34
2023-03-12T09:47:33.121Z,100506.00
2023-03-12T09:50:06.787Z,100493.63
2023-03-12T09:52:41.278Z,100484.38
2023-03-12T09:55:15.590Z,100482.03
2023-03-12T09:57:45.436Z,100506.09
2023-03-12T10:00:17.931Z,100512.41
2023-03-12T10:03:06.657Z,100492.75
2023-03-12T10:05:40.261Z,100477.97
2023-03-12T10:08:25.507Z,100480.78
2023-03-12T10:11:00.048Z,100488.69
2023-03-12T10:13:45.307Z,100493.19
2023-03-12T10:16:28.438Z,100498.16
2023-03-12T10:19:07.038Z,100486.47
2023-03-12T10:21:40.435Z,100491.50
2023-03-12T10:24:19.015Z,100487.94
2023-03-12T10:26:51.384Z,100497.53
2023-03-12T10:29:24.154Z,100481.72
2023-03-12T10:32:00.504Z,100488.94
2023-03-12T10:34:37.589Z,100493.97
2023-03-12T10:37:15.275Z,100487.50
2023-03-12T10:39:43.821Z,100490.41
2023-03-12T10:42:17.299Z,100500.41
2023-03-12T10:44:47.688Z,100509.41
2023-03-12T10:47:31.499Z,100502.97
2023-03-12T10:50:15.527Z,100507.91
2023-03-12T10:52:44.769Z,100507.63
2023-03-12T10:55:20.757Z,100519.00
2023-03-12T10:57:50.327Z,100517.50
2023-03-12T11:00:24.627Z,100509.63
2023-03-12T11:03:03.675Z,100501.31
2023-03-12T11:05:35.312Z,100508.81
2023-03-12T11:08:05.519Z,100507.13
2023-03-12T11:10:44.404Z,100516.91
2023-03-12T11:13:29.188Z,100501.50
2023-03-12T11:15:59.909Z,100502.97
2023-03-12T11:18:35.320Z,100500.38
2023-03-12T11:21:21.769Z,100498.75
2023-03-12T11:24:07.800Z,100497.94
2023-03-12T11:26:44.000Z,100486.78
2023-03-12T11:29:19.620Z,100480.00
2023-03-12T11:31:57.623Z,100480.22
2023-03-12T11:34:31.228Z,100480.00
2023-03-12T11:37:08.792Z,100482.75
2023-03-12T11:39:48.641Z,100486.09
2023-03-12T11:42:28.418Z,100481.84
2023-03-12T11:45:05.808Z,100485.88
2023-03-12T11:47:49.143Z,100498.28
2023-03-12T11:50:28.918Z,100500.03
2023-03-12T11:53:15.587Z,100487.19
2023-03-12T11:55:57.090Z,100494.72
2023-03-12T11:58:50.835Z,100497.84
2023-03-12T12:01:28.689Z,100505.44
2023-03-12T12:04:18.275Z,100493.16
2023-03-12T12:07:00.148Z,100498.78
2023-03-12T12:09:38.057Z,100482.47
2023-03-12T12:12:19.549Z,100492.41
2023-03-12T12:15:03.725Z,100485.28
2023-03-12T12:17:45.304Z,100492.63
2023-03-12T12:20:26.820Z,100488.75
2023-03-12T12:23:05.647Z,100481.28
2023-03-12T12:25:50.564Z,100476.84
2023-03-12T12:28:49.892Z,100480.78
2023-03-12T12:31:30.248Z,100484.09
2023-03-12T12:34:16.785Z,100482.81
2023-03-12T12:36:51.510Z,100478.16
2023-03-12T12:39:32.015Z,100476.94
2023-03-12T12:42:04.041Z,100461.72
2023-03-12T12:44:38.131Z,100464.03
2023-03-12T12:47:13.313Z,100450.09
2023-03-12T12:49:47.877Z,100444.63
2023-03-12T12:52:20.050Z,100438.91
2023-03-12T12:54:58.212Z,100436.03
2023-03-12T12:57:33.701Z,100432.91
2023-03-12T13:00:15.788Z,100428.03
2023-03-12T13:02:47.984Z,100421.31
2023-03-12T13:05:22.490Z,100418.63
2023-03-12T13:07:51.146Z,100419.22
2023-03-12T13:10:48.643Z,100421.31
2023-03-12T13:13:27.484Z,100429.28
2023-03-12T13:16:20.453Z,100420.03
2023-03-12T13:18:59.691Z,100414.00
2023-03-12T13:21:35.868Z,100407.72
2023-03-12T13:24:25.060Z,100400.84
2023-03-12T13:27:01.430Z,100404.34
2023-03-12T13:29:41.896Z,100397.84
2023-03-12T13:32:38.849Z,100394.97
2023-03-12T13:35:29.793Z,100405.38
2023-03-12T13:38:07.393Z,100398.00
2023-03-12T13:41:03.214Z,100391.66
2023-03-12T13:43:52.877Z,100392.53
2023-03-12T13:46:43.148Z,100385.94
2023-03-12T13:49:18.769Z,100385.47
2023-03-12T13:51:55.800Z,100367.75
2023-03-12T13:54:29.730Z,100375.00
2023-03-12T13:57:05.738Z,100386.72
2023-03-12T13:59:36.671Z,100367.56
2023-03-12T14:02:15.383Z,100367.91
2023-03-12T14:04:44.625Z,100368.06
2023-03-12T14:07:41.145Z,100372.47
2023-03-12T14:10:21.116Z,100365.41
2023-03-12T14:12:58.216Z,100366.13
2023-03-12T14:15:38.876Z,100359.78
2023-03-12T14:18:16.636Z,100350.91
2023-03-12T14:20:55.448Z,100365.88
2023-03-12T14:23:28.060Z,100363.25
2023-03-12T14:26:03.491Z,100375.69
2023-03-12T14:28:39.712Z,100378.34
2023-03-12T14:31:15.325Z,100371.25
2023-03-12T14:33:53.135Z,100370.69
2023-03-12T14:36:25.515Z,100375.72
2023-03-12T14:39:11.593Z,100387.81
2023-03-12T14:41:46.939Z,100386.59
2023-03-12T14:44:23.902Z,100379.91
2023-03-12T14:47:01.217Z,100383.09
2023-03-12T14:49:31.063Z,100390.94
2023-03-12T14:51:59.895Z,100396.22
2023-03-12T14:54:29.917Z,100404.72
2023-03-12T14:56:58.535Z,100392.63
2023-03-12T14:59:31.183Z,100407.25
2023-03-12T15:02:12.825Z,100390.81
2023-03-12T15:04:42.920Z,100395.97
2023-03-12T15:07:14.718Z,100404.81
2023-03-12T15:09:47.135Z,100403.38
2023-03-12T15:12:21.906Z,100411.88
2023-03-12T15:14:53.283Z,100405.53
2023-03-12T15:17:25.787Z,100399.09
2023-03-12T15:19:57.306Z,100403.63
2023-03-12T15:22:27.940Z,100407.97
2023-03-12T15:24:56.614Z,100407.00
2023-03-12T15:27:34.686Z,100408.06
2023-03-12T15:30:04.114Z,100413.56
2023-03-12T15:32:34.307Z,100411.19
2023-03-12T15:35:14.493Z,100416.13
2023-03-12T15:37:53.473Z,100395.63
2023-03-12T15:40:24.320Z,100396.19
2023-03-12T15:42:57.449Z,100405.53
2023-03-12T15:45:32.328Z,100412.25
2023-03-12T15:48:04.426Z,100416.09
2023-03-12T15:50:36.250Z,100416.09
2023-03-12T15:53:07.157Z,100419.31
2023-03-12T15:55:36.933Z,100415.38
2023-03-12T15:58:26.918Z,100415.50
2023-03-12T16:00:55.790Z,100417.19
2023-03-12T16:03:25.764Z,100419.09
2023-03-12T16:05:54.355Z,100414.41
2023-03-12T16:08:28.221Z,100422.44
2023-03-12T16:10:57.527Z,100423.03
2023-03-12T16:13:31.759Z,100422.69
2023-03-12T16:16:01.803Z,100423.06
2023-03-12T16:18:31.810Z,100428.09
2023-03-12T16:21:00.390Z,100432.41
2023-03-12T16:23:28.937Z,100425.34
2023-03-12T16:25:59.326Z,100435.16
2023-03-12T16:28:28.288Z,100431.34
2023-03-12T16:30:56.909Z,100434.59
2023-03-12T16:33:26.381Z,100439.13
2023-03-12T16:35:57.782Z,100436.97
2023-03-12T16:38:26.448Z,100432.78
2023-03-12T16:40:55.742Z,100438.88
2023-03-12T16:43:25.962Z,100437.59
2023-03-12T16:45:56.721Z,100441.75
2023-03-12T16:48:26.627Z,100438.75
2023-03-12T16:50:58.747Z,100428.47
2023-03-12T16:53:27.570Z,100427.50
2023-03-12T16:55:57.945Z,100430.22
2023-03-12T16:58:28.097Z,100418.84
2023-03-12T17:00:57.149Z,100420.56
2023-03-12T17:03:35.433Z,100427.69
2023-03-12T17:06:07.510Z,100441.09
2023-03-12T17:08:36.239Z,100434.16
2023-03-12T17:11:13.455Z,100430.19
2023-03-12T17:13:42.097Z,100423.50
2023-03-12T17:16:12.759Z,100432.84
2023-03-12T17:18:42.012Z,100434.03
2023-03-12T17:21:14.755Z,100440.72
2023-03-12T17:23:43.824Z,100433.91
2023-03-12T17:26:12.425Z,100438.81
2023-03-12T17:28:40.979Z,100439.28
2023-03-12T17:31:10.320Z,100444.06
2023-03-12T17:33:39.284Z,100449.84
2023-03-12T17:36:09.855Z,100436.63
2023-03-12T17:38:40.012Z,100449.84
2023-03-12T17:41:23.350Z,100459.56
2023-03-12T17:43:54.726Z,100472.38
2023-03-12T17:46:23.492Z,100466.16
2023-03-12T17:48:52.045Z,100470.94
2023-03-12T17:51:21.174Z,100472.41
2023-03-12T17:53:51.245Z,100470.69
2023-03-12T17:56:19.858Z,100473.44
2023-03-12T17:58:48.770Z,100478.38
2023-03-12T18:01:18.185Z,100467.47
2023-03-12T18:03:46.894Z,100472.75
2023-03-12T18:06:15.482Z,100475.53
2023-03-12T18:08:44.155Z,100473.34
2023-03-12T18:11:14.101Z,100471.16
2023-03-12T18:13:42.695Z,100467.00
2023-03-12T18:16:11.343Z,100463.88
2023-03-12T18:18:39.930Z,100466.50
2023-03-12T18:21:08.478Z,100460.63
2023-03-12T18:23:37.068Z,100470.59
2023-03-12T18:26:06.315Z,100477.63
2023-03-12T18:28:36.277Z,100476.78
2023-03-12T18:31:05.165Z,100479.56
2023-03-12T18:33:35.029Z,100481.25
2023-03-12T18:36:03.946Z,100485.66
2023-03-12T18:38:33.228Z,100482.00
2023-03-12T18:41:06.253Z,100487.81
2023-03-12T18:43:36.752Z,100479.22
2023-03-12T18:46:06.079Z,100489.09
2023-03-12T18:48:34.831Z,100481.44
2023-03-12T18:51:03.590Z,100479.31
2023-03-12T18:53:33.210Z,100477.03
2023-03-12T18:56:02.644Z,100479.22
2023-03-12T18:58:31.191Z,100479.00
2023-03-12T19:01:01.890Z,100473.19
2023-03-12T19:03:36.426Z,100469.53
2023-03-12T19:06:07.090Z,100459.56
2023-03-12T19:08:37.259Z,100462.50
2023-03-12T19:11:06.334Z,100466.03
2023-03-12T19:13:35.011Z,100456.81
2023-03-12T19:16:08.426Z,100467.03
2023-03-12T19:18:37.913Z,100463.69
2023-03-12T19:21:08.208Z,100458.06
2023-03-12T19:23:36.868Z,100460.34
2023-03-12T19:26:05.832Z,100458.66
2023-03-12T19:28:34.591Z,100452.19
2023-03-12T19:31:05.836Z,100450.06
2023-03-12T19:33:34.431Z,100449.84
2023-03-12T19:36:03.294Z,100455.25
2023-03-12T19:38:32.629Z,100457.63
2023-03-12T19:41:02.487Z,100455.13
2023-03-12T19:43:31.067Z,100451.88
2023-03-12T19:45:59.744Z,100446.50
2023-03-12T19:48:29.814Z,100441.63
2023-03-12T19:50:58.578Z,100435.06
2023-03-12T19:53:27.186Z,100437.41
2023-03-12T19:55:55.762Z,100433.66
2023-03-12T19:58:24.310Z,100435.38
2023-03-12T20:00:52.900Z,100428.16
2023-03-12T20:03:22.235Z,100433.50
2023-03-12T20:05:52.375Z,100429.72
2023-03-12T20:08:22.501Z,100429.13
2023-03-12T20:10:51.118Z,100423.25
2023-03-12T20:13:19.710Z,100423.63
2023-03-12T20:15:48.747Z,100419.88
2023-03-12T20:18:17.587Z,100420.09
2023-03-12T20:20:47.469Z,100409.44
2023-03-12T20:23:17.374Z,100404.13
2023-03-12T20:25:48.539Z,100400.94
2023-03-12T20:28:17.566Z,100405.28
2023-03-12T20:30:46.347Z,100396.66
2023-03-12T20:33:14.901Z,100396.41
2023-03-12T20:35:43.584Z,100404.22
2023-03-12T20:38:12.303Z,100394.13
2023-03-12T20:40:45.438Z,100393.28
2023-03-12T20:43:14.041Z,100383.91
2023-03-12T20:45:42.699Z,100388.13
2023-03-12T20:48:12.396Z,100379.38
2023-03-12T20:50:41.099Z,100375.41
2023-03-12T20:53:09.786Z,100378.06
2023-03-12T20:55:41.128Z,100365.34
2023-03-12T20:58:09.704Z,100381.06
2023-03-12T21:00:38.344Z,100367.72
2023-03-12T21:03:06.947Z,100370.72
2023-03-12T21:05:35.549Z,100362.75
2023-03-12T21:08:04.286Z,100353.81
2023-03-12T21:10:32.901Z,100348.56
2023-03-12T21:13:02.839Z,100345.81
2023-03-12T21:15:31.451Z,100342.91
2023-03-12T21:18:00.016Z,100342.59
2023-03-12T21:20:28.631Z,100330.94
2023-03-12T21:22:58.412Z,100325.56
2023-03-12T21:25:27.031Z,100327.13
2023-03-12T21:27:56.922Z,100321.84
2023-03-12T21:30:26.942Z,100316.94
2023-03-12T21:32:55.630Z,100320.25
2023-03-12T21:35:24.759Z,100317.19
2023-03-12T21:37:54.466Z,100316.09
2023-03-12T21:40:23.073Z,100324.38
2023-03-12T21:42:51.685Z,100317.50
2023-03-12T21:45:20.623Z,100323.66
2023-03-12T21:47:50.518Z,100314.78
2023-03-12T21:50:19.154Z,100315.97
2023-03-12T21:52:49.437Z,100307.09
2023-03-12T21:55:19.415Z,100309.75
2023-03-12T21:57:48.171Z,100309.53
2023-03-12T22:00:17.656Z,100308.19
2023-03-12T22:02:47.412Z,100316.22
2023-03-12T22:05:17.640Z,100308.31
2023-03-12T22:07:46.186Z,100303.66
2023-03-12T22:10:14.794Z,100294.09
2023-03-12T22:12:43.392Z,100291.44
2023-03-12T22:15:12.614Z,100283.50
2023-03-12T22:17:41.189Z,100280.31
2023-03-12T22:20:11.525Z,100270.47
2023-03-12T22:22:41.513Z,100266.00
2023-03-12T22:25:10.646Z,100273.72
2023-03-12T22:27:39.256Z,100271.06
2023-03-12T22:30:09.155Z,100254.91
2023-03-12T22:32:37.786Z,100250.47
2023-03-12T22:35:06.907Z,100245.31
2023-03-12T22:37:35.493Z,100243.03
2023-03-12T22:40:07.263Z,100244.84
2023-03-12T22:42:35.851Z,100239.94
2023-03-12T22:45:04.963Z,100232.50
2023-03-12T22:47:33.553Z,100228.78
2023-03-12T22:50:02.107Z,100220.41
2023-03-12T22:52:30.693Z,100208.41
2023-03-12T22:54:59.285Z,100217.88
2023-03-12T22:57:29.293Z,100205.78
2023-03-12T22:59:57.852Z,100203.50
2023-03-12T23:02:26.460Z,100193.94
2023-03-12T23:04:55.033Z,100182.22
2023-03-12T23:07:23.913Z,100178.38
2023-03-12T23:09:52.582Z,100178.50
2023-03-12T23:12:21.190Z,100178.25
2023-03-12T23:14:51.433Z,100163.28
2023-03-12T23:17:20.041Z,100150.56
2023-03-12T23:19:48.838Z,100145.53
2023-03-12T23:22:17.476Z,100143.38
2023-03-12T23:24:46.031Z,100138.84
2023-03-12T23:27:14.655Z,100130.31
2023-03-12T23:29:43.252Z,100130.66
2023-03-12T23:32:13.255Z,100132.25
2023-03-12T23:34:41.837Z,100124.59
2023-03-12T23:37:10.557Z,100120.28
2023-03-12T23:39:53.557Z,100112.81
2023-03-12T23:42:23.237Z,100109.13
2023-03-12T23:44:51.832Z,100113.91
2023-03-12T23:47:21.771Z,100105.38
2023-03-12T23:49:50.321Z,100103.75
2023-03-12T23:52:19.263Z,100095.91
2023-03-12T23:54:47.885Z,100092.31
2023-03-12T23:57:16.485Z,100086.22
2023-03-12T23:59:45.214Z,100075.34
